createdAt,value
2023-05-06T00:00:02.321Z,58.53599922467933
2023-05-06T00:15:01.929Z,58.516372555884374
2023-05-06T00:30:01.586Z,59.493569111401484
2023-05-06T00:45:02.214Z,59.22177087596733
2023-05-06T01:00:01.780Z,59.9218908003062
2023-05-06T01:15:02.413Z,61.1096304228762
2023-05-06T01:30:02.074Z,61.97069881783709
2023-05-06T01:45:01.762Z,60.81420097211701
2023-05-06T02:00:02.415Z,60.0192546224143
2023-05-06T02:15:02.078Z,60.10926293146593
2023-05-06T02:30:01.758Z,61.88649318295509
2023-05-06T02:45:02.382Z,60.00831754455433
2023-05-06T03:00:01.958Z,59.96209335451289
2023-05-06T03:15:01.593Z,59.668711583756604
2023-05-06T03:30:02.229Z,59.83830274019189
2023-05-06T03:45:01.833Z,59.98072916943636
2023-05-06T04:00:02.548Z,59.995944721218486
2023-05-06T04:15:02.228Z,59.93416137736654
2023-05-06T04:30:02.418Z,60.35810118759762
2023-05-06T04:45:02.020Z,60.356011335605025
2023-05-06T05:00:01.600Z,60.24330544484047
2023-05-06T05:15:02.253Z,60.24003542203617
2023-05-06T05:30:01.932Z,60.325462182981354
2023-05-06T05:45:01.516Z,60.27635216327091
2023-05-06T06:00:02.166Z,60.695009642298864
2023-05-06T06:15:01.884Z,60.31523913868013
2023-05-06T06:30:01.576Z,60.654933614081635
2023-05-06T06:45:02.222Z,61.85518468717784
2023-05-06T07:00:01.865Z,60.49062280029798
2023-05-06T07:15:02.487Z,62.365109584453755
2023-05-06T07:30:02.107Z,61.57703452579124
2023-05-06T07:45:01.733Z,61.82352950172139
2023-05-06T08:00:02.354Z,62.19148587243615
2023-05-06T08:15:02.025Z,61.99521243211827
2023-05-06T08:30:01.716Z,61.88028085933124
2023-05-06T08:45:02.316Z,61.61499511249674
2023-05-06T09:00:02.014Z,60.572664685412434
2023-05-06T09:15:01.710Z,60.43586247927226
2023-05-06T09:30:02.517Z,59.87861108081608
2023-05-06T09:45:02.482Z,59.571963453123665
2023-05-06T10:00:02.182Z,58.47797780997163
2023-05-06T10:15:01.832Z,57.13291521262402
2023-05-06T10:30:02.458Z,57.4660610594051
2023-05-06T10:45:02.133Z,56.71635983178232
2023-05-06T11:00:01.789Z,54.19180309048382
2023-05-06T11:15:02.401Z,52.51271051394926
2023-05-06T11:30:02.050Z,53.674923293276784
2023-05-06T11:45:01.619Z,51.67947964165062
2023-05-06T12:00:02.191Z,53.047918539749546
2023-05-06T12:15:01.777Z,50.635997315178244
2023-05-06T12:30:02.428Z,49.78396251797353
2023-05-06T12:45:02.066Z,50.67697160635004
2023-05-06T13:00:01.707Z,50.82434085310503
2023-05-06T13:15:02.287Z,48.65486674281588
2023-05-06T13:30:01.888Z,46.96466756559897
2023-05-06T13:45:02.520Z,46.72570020627665
2023-05-06T14:00:02.239Z,44.58234654254494
2023-05-06T14:15:02.036Z,44.92393393538451
2023-05-06T14:30:01.660Z,45.10965844190227
2023-05-06T14:45:02.291Z,44.92774951699354
2023-05-06T15:00:01.971Z,44.65698920590711
2023-05-06T15:15:01.616Z,42.01926862957076
2023-05-06T15:30:02.219Z,46.04089968117061
2023-05-06T15:45:01.812Z,44.84540418008716
2023-05-06T16:00:02.458Z,45.35230581620201
2023-05-06T16:15:02.111Z,45.10434206704802
2023-05-06T16:30:01.825Z,43.78244628327125
2023-05-06T16:45:02.454Z,45.682666437723256
2023-05-06T17:00:02.124Z,45.399921973171736
2023-05-06T17:15:01.743Z,46.343409250093636
2023-05-06T17:30:02.358Z,47.43902057076624
2023-05-06T17:45:01.952Z,47.85845319475791
2023-05-06T18:00:01.595Z,47.47556419443665
2023-05-06T18:15:02.187Z,47.86478208009435
2023-05-06T18:30:01.901Z,48.820667408436165
2023-05-06T18:45:02.548Z,48.71124825816584
2023-05-06T19:00:02.168Z,49.12132931983559
2023-05-06T19:15:01.910Z,49.83827206168319
2023-05-06T19:30:01.550Z,49.553529541401225
2023-05-06T19:45:02.135Z,49.741217520858996
2023-05-06T20:00:01.752Z,50.318276023345035
2023-05-06T20:15:02.375Z,50.6343844221576
2023-05-06T20:30:02.035Z,51.52400683355643
2023-05-06T20:45:01.786Z,52.365173287241966
2023-05-06T21:00:02.402Z,52.846248795433276
2023-05-06T21:15:02.066Z,53.79958137197781
2023-05-06T21:30:01.801Z,53.84002117933359
2023-05-06T21:45:02.432Z,54.49259247262248
2023-05-06T22:00:02.070Z,55.099125276970334
2023-05-06T22:15:01.784Z,55.004686617137985
2023-05-06T22:30:02.457Z,55.00302368701101
2023-05-06T22:45:02.053Z,54.97549755141343
2023-05-06T23:00:01.700Z,55.93135768909457
2023-05-06T23:15:02.322Z,56.30419562236396
2023-05-06T23:30:01.992Z,56.81898113410827
2023-05-06T23:45:01.604Z,56.477269540898185
